createdAt,value
2019-05-29T00:00:35.118Z,1.37
2019-05-29T00:03:04.019Z,1.70
2019-05-29T00:05:32.620Z,1.70
2019-05-29T00:08:01.187Z,1.40
2019-05-29T00:10:29.796Z,2.07
2019-05-29T00:12:58.355Z,2.27
2019-05-29T00:15:26.959Z,1.67
2019-05-29T00:17:55.527Z,2.30
2019-05-29T00:20:23.764Z,2.17
2019-05-29T00:22:52.309Z,2.20
2019-05-29T00:25:20.872Z,1.77
2019-05-29T00:27:49.415Z,1.77
2019-05-29T00:30:18.109Z,1.30
2019-05-29T00:32:46.648Z,1.70
2019-05-29T00:35:16.338Z,1.60
2019-05-29T00:37:44.592Z,2.30
2019-05-29T00:40:14.968Z,2.20
2019-05-29T00:42:43.676Z,2.20
2019-05-29T00:45:13.431Z,2.63
2019-05-29T00:47:42.107Z,2.40
2019-05-29T00:50:12.274Z,2.40
2019-05-29T00:52:40.949Z,1.90
2019-05-29T00:55:10.473Z,1.77
2019-05-29T00:57:39.123Z,2.27
2019-05-29T01:00:08.960Z,2.10
2019-05-29T01:02:37.739Z,3.70
2019-05-29T01:05:07.174Z,3.57
2019-05-29T01:07:35.783Z,2.63
2019-05-29T01:10:05.561Z,2.07
2019-05-29T01:12:34.100Z,2.70
2019-05-29T01:15:02.667Z,2.10
2019-05-29T01:17:31.204Z,1.63
2019-05-29T01:19:59.779Z,1.63
2019-05-29T01:22:28.318Z,2.10
2019-05-29T01:24:56.881Z,2.30
2019-05-29T01:27:25.425Z,2.50
2019-05-29T01:29:54.014Z,1.83
2019-05-29T01:32:23.736Z,2.33
2019-05-29T01:34:52.552Z,1.93
2019-05-29T01:37:22.239Z,2.17
2019-05-29T01:39:51.027Z,1.47
2019-05-29T01:42:19.598Z,2.07
2019-05-29T01:44:48.162Z,1.70
2019-05-29T01:47:17.408Z,1.40
2019-05-29T01:49:46.360Z,1.80
2019-05-29T01:52:15.487Z,2.53
2019-05-29T01:54:44.181Z,1.60
2019-05-29T01:57:12.711Z,2.53
2019-05-29T01:59:41.388Z,3.07
2019-05-29T02:02:09.958Z,3.00
2019-05-29T02:04:38.489Z,2.03
2019-05-29T02:07:07.153Z,1.63
2019-05-29T02:09:35.718Z,1.83
2019-05-29T02:12:04.744Z,2.40
2019-05-29T02:14:33.411Z,2.00
2019-05-29T02:17:02.074Z,1.97
2019-05-29T02:19:30.653Z,2.10
2019-05-29T02:21:59.253Z,3.47
2019-05-29T02:24:27.852Z,4.47
2019-05-29T02:26:56.386Z,3.13
2019-05-29T02:29:24.993Z,2.73
2019-05-29T02:31:53.558Z,2.17
2019-05-29T02:34:23.102Z,2.10
2019-05-29T02:36:52.483Z,1.93
2019-05-29T02:39:22.890Z,2.00
2019-05-29T02:41:51.634Z,1.90
2019-05-29T02:44:21.128Z,1.67
2019-05-29T02:46:49.872Z,2.00
2019-05-29T02:49:19.943Z,2.10
2019-05-29T02:51:48.755Z,2.53
2019-05-29T02:54:17.327Z,2.20
2019-05-29T02:56:45.556Z,2.00
2019-05-29T02:59:14.092Z,2.40
2019-05-29T03:01:42.696Z,2.83
2019-05-29T03:04:11.303Z,2.40
2019-05-29T03:06:40.044Z,1.87
2019-05-29T03:09:08.283Z,2.07
2019-05-29T03:11:36.859Z,2.10
2019-05-29T03:14:05.560Z,2.53
2019-05-29T03:16:34.908Z,1.93
2019-05-29T03:19:03.797Z,2.47
2019-05-29T03:21:32.603Z,2.30
2019-05-29T03:24:01.617Z,2.60
2019-05-29T03:26:31.446Z,2.07
2019-05-29T03:29:00.403Z,3.17
2019-05-29T03:31:36.841Z,3.83
2019-05-29T03:33:59.193Z,3.30
2019-05-29T03:36:32.122Z,3.27
2019-05-29T03:38:58.008Z,3.00
2019-05-29T03:41:26.339Z,2.33
2019-05-29T03:43:54.843Z,2.37
2019-05-29T03:46:31.653Z,2.77
2019-05-29T03:48:53.726Z,2.60
2019-05-29T03:51:22.307Z,1.80
2019-05-29T03:53:50.901Z,2.33
2019-05-29T03:56:19.462Z,2.70
2019-05-29T03:58:48.055Z,1.90
2019-05-29T04:01:16.642Z,2.03
2019-05-29T04:03:45.223Z,2.30
2019-05-29T04:06:13.799Z,2.13
2019-05-29T04:08:42.405Z,2.67
2019-05-29T04:11:10.931Z,2.33
2019-05-29T04:13:40.189Z,2.13
2019-05-29T04:16:10.803Z,2.23
2019-05-29T04:18:41.493Z,3.77
2019-05-29T04:21:11.792Z,2.53
2019-05-29T04:23:42.280Z,2.70
2019-05-29T04:26:13.863Z,2.40
2019-05-29T04:28:42.784Z,2.70
2019-05-29T04:31:11.478Z,2.30
2019-05-29T04:33:40.040Z,2.67
2019-05-29T04:36:08.610Z,2.63
2019-05-29T04:38:39.717Z,2.10
2019-05-29T04:41:07.129Z,2.17
2019-05-29T04:43:36.061Z,2.93
2019-05-29T04:46:05.625Z,2.10
2019-05-29T04:48:36.129Z,2.63
2019-05-29T04:51:04.444Z,2.10
2019-05-29T04:53:33.592Z,1.90
2019-05-29T04:56:02.744Z,2.17
2019-05-29T04:58:31.343Z,2.57
2019-05-29T05:00:59.918Z,1.90
2019-05-29T05:03:29.101Z,2.47
2019-05-29T05:05:57.458Z,2.47
2019-05-29T05:08:26.051Z,2.80
2019-05-29T05:10:54.616Z,2.50
2019-05-29T05:13:23.312Z,2.40
2019-05-29T05:15:53.196Z,2.00
2019-05-29T05:18:21.787Z,1.77
2019-05-29T05:20:50.371Z,2.60
2019-05-29T05:23:18.626Z,1.67
2019-05-29T05:25:47.194Z,2.97
2019-05-29T05:28:15.520Z,2.47
2019-05-29T05:30:44.095Z,2.43
2019-05-29T05:33:12.712Z,2.37
2019-05-29T05:35:41.415Z,3.23
2019-05-29T05:38:09.953Z,2.03
2019-05-29T05:40:41.334Z,3.23
2019-05-29T05:43:23.167Z,2.13
2019-05-29T05:45:39.243Z,2.53
2019-05-29T05:48:07.836Z,2.20
2019-05-29T05:50:37.289Z,3.23
2019-05-29T05:53:06.004Z,1.70
2019-05-29T05:55:35.503Z,2.87
2019-05-29T05:58:04.302Z,3.60
2019-05-29T06:00:34.166Z,2.73
2019-05-29T06:03:02.304Z,2.27
2019-05-29T06:05:32.117Z,1.83
2019-05-29T06:08:00.973Z,1.70
2019-05-29T06:10:29.647Z,2.80
2019-05-29T06:12:58.180Z,2.03
2019-05-29T06:15:26.792Z,2.77
2019-05-29T06:18:16.922Z,2.27
2019-05-29T06:20:25.651Z,1.87
2019-05-29T06:22:54.289Z,2.10
2019-05-29T06:25:22.611Z,2.77
2019-05-29T06:27:51.201Z,2.83
2019-05-29T06:30:20.284Z,2.60
2019-05-29T06:32:48.855Z,2.80
2019-05-29T06:35:17.683Z,2.73
2019-05-29T06:37:46.292Z,2.83
2019-05-29T06:40:18.056Z,2.40
2019-05-29T06:42:46.599Z,3.90
2019-05-29T06:45:18.280Z,2.63
2019-05-29T06:47:46.814Z,2.70
2019-05-29T06:50:15.468Z,2.30
2019-05-29T06:52:44.038Z,2.30
2019-05-29T06:55:12.292Z,2.87
2019-05-29T06:57:42.474Z,1.57
2019-05-29T07:00:11.181Z,2.07
2019-05-29T07:02:40.717Z,2.80
2019-05-29T07:05:09.690Z,2.90
2019-05-29T07:07:38.385Z,2.77
2019-05-29T07:10:07.495Z,2.80
2019-05-29T07:12:36.275Z,2.77
2019-05-29T07:15:08.411Z,2.67
2019-05-29T07:17:38.424Z,2.83
2019-05-29T07:20:08.282Z,2.60
2019-05-29T07:22:37.118Z,3.13
2019-05-29T07:25:07.249Z,2.33
2019-05-29T07:27:36.837Z,1.50
2019-05-29T07:30:07.432Z,2.33
2019-05-29T07:32:38.001Z,2.37
2019-05-29T07:35:07.042Z,3.07
2019-05-29T07:37:35.603Z,2.57
2019-05-29T07:40:07.439Z,2.30
2019-05-29T07:42:36.001Z,2.30
2019-05-29T07:45:06.234Z,2.13
2019-05-29T07:47:34.875Z,2.13
2019-05-29T07:50:05.152Z,2.50
2019-05-29T07:52:33.785Z,2.13
2019-05-29T07:55:02.433Z,2.03
2019-05-29T07:57:31.034Z,3.17
2019-05-29T07:59:59.589Z,2.17
2019-05-29T08:02:28.195Z,2.17
2019-05-29T08:04:56.758Z,2.60
2019-05-29T08:07:25.356Z,2.50
2019-05-29T08:09:54.167Z,2.53
2019-05-29T08:12:22.464Z,2.40
2019-05-29T08:14:51.029Z,2.17
2019-05-29T08:17:19.607Z,2.27
2019-05-29T08:20:03.108Z,2.40
2019-05-29T08:22:33.202Z,2.53
2019-05-29T08:24:49.459Z,2.30
2019-05-29T08:27:18.853Z,2.00
2019-05-29T08:29:48.765Z,2.23
2019-05-29T08:32:17.611Z,2.70
2019-05-29T08:34:47.058Z,1.60
2019-05-29T08:37:15.781Z,2.00
2019-05-29T08:39:45.414Z,2.37
2019-05-29T08:42:23.647Z,1.90
2019-05-29T08:44:45.391Z,1.70
2019-05-29T08:47:14.116Z,1.50
2019-05-29T08:49:43.691Z,1.70
2019-05-29T08:52:12.945Z,2.10
2019-05-29T08:54:42.036Z,1.67
2019-05-29T08:57:10.390Z,1.80
2019-05-29T08:59:38.961Z,1.67
2019-05-29T09:02:07.567Z,1.50
2019-05-29T09:04:36.146Z,2.10
2019-05-29T09:07:04.882Z,2.20
2019-05-29T09:09:33.455Z,1.77
2019-05-29T09:12:02.119Z,1.87
2019-05-29T09:14:30.726Z,1.87
2019-05-29T09:16:59.336Z,1.73
2019-05-29T09:19:27.903Z,1.97
2019-05-29T09:21:56.560Z,1.93
2019-05-29T09:24:25.126Z,1.93
2019-05-29T09:26:53.687Z,1.67
2019-05-29T09:29:23.836Z,1.80
2019-05-29T09:31:52.512Z,1.50
2019-05-29T09:34:22.612Z,1.80
2019-05-29T09:36:54.612Z,1.70
2019-05-29T09:39:22.682Z,1.67
2019-05-29T09:41:51.494Z,1.40
2019-05-29T09:44:36.065Z,1.60
2019-05-29T09:46:50.242Z,1.80
2019-05-29T09:49:19.976Z,1.70
2019-05-29T09:51:48.874Z,1.40
2019-05-29T09:54:17.564Z,1.40
2019-05-29T09:56:46.294Z,1.67
2019-05-29T09:59:14.548Z,2.47
2019-05-29T10:01:43.118Z,1.30
2019-05-29T10:04:11.702Z,1.63
2019-05-29T10:06:40.267Z,1.30
2019-05-29T10:09:09.700Z,1.20
2019-05-29T10:11:38.302Z,1.30
2019-05-29T10:14:06.601Z,1.10
2019-05-29T10:16:35.190Z,1.50
2019-05-29T10:19:04.974Z,1.40
2019-05-29T10:21:40.729Z,1.37
2019-05-29T10:24:04.897Z,1.20
2019-05-29T10:26:34.315Z,1.43
2019-05-29T10:31:34.356Z,1.33
2019-05-29T10:32:52.797Z,1.40
2019-05-29T10:34:02.954Z,1.30
2019-05-29T10:36:31.605Z,1.30
2019-05-29T10:39:00.256Z,1.30
2019-05-29T10:41:28.830Z,1.23
2019-05-29T10:43:57.488Z,1.30
2019-05-29T10:46:26.053Z,1.30
2019-05-29T10:48:56.561Z,1.20
2019-05-29T10:51:24.536Z,1.10
2019-05-29T10:53:56.076Z,1.60
2019-05-29T10:56:23.309Z,1.20
2019-05-29T10:58:56.470Z,1.20
2019-05-29T11:01:22.093Z,1.50
2019-05-29T11:03:52.356Z,1.57
2019-05-29T11:06:21.061Z,1.20
2019-05-29T11:08:50.068Z,1.37
2019-05-29T11:11:18.799Z,1.20
2019-05-29T11:13:48.541Z,1.40
2019-05-29T11:16:17.179Z,1.30
2019-05-29T11:18:45.449Z,1.17
2019-05-29T11:21:14.004Z,1.00
2019-05-29T11:23:42.571Z,0.97
2019-05-29T11:26:11.142Z,1.30
2019-05-29T11:28:39.760Z,1.10
2019-05-29T11:31:08.292Z,1.70
2019-05-29T11:33:36.887Z,1.20
2019-05-29T11:36:12.390Z,1.00
2019-05-29T11:38:35.104Z,1.23
2019-05-29T11:41:23.638Z,1.33
2019-05-29T11:43:33.656Z,1.47
2019-05-29T11:46:02.294Z,1.10
2019-05-29T11:48:30.902Z,1.33
2019-05-29T11:50:59.467Z,1.37
2019-05-29T11:53:28.045Z,1.40
2019-05-29T11:55:57.661Z,1.33
2019-05-29T11:58:30.981Z,1.00
2019-05-29T12:00:57.143Z,1.37
2019-05-29T12:03:25.911Z,1.57
2019-05-29T12:05:55.356Z,1.60
2019-05-29T12:08:24.105Z,1.20
2019-05-29T12:10:53.202Z,1.23
2019-05-29T12:13:21.900Z,1.50
2019-05-29T12:15:51.506Z,1.30
2019-05-29T12:18:24.321Z,1.30
2019-05-29T12:20:50.371Z,1.30
2019-05-29T12:23:26.353Z,1.27
2019-05-29T12:25:49.254Z,1.50
2019-05-29T12:28:17.858Z,1.20
2019-05-29T12:30:46.556Z,1.53
2019-05-29T12:33:14.813Z,1.77
2019-05-29T12:35:43.510Z,1.60
2019-05-29T12:38:12.070Z,2.37
2019-05-29T12:40:40.924Z,1.60
2019-05-29T12:43:26.037Z,1.97
2019-05-29T12:45:39.702Z,1.60
2019-05-29T12:48:13.571Z,1.70
2019-05-29T12:50:38.672Z,1.60
2019-05-29T12:53:07.301Z,1.83
2019-05-29T12:55:35.589Z,1.50
2019-05-29T12:58:04.573Z,1.63
2019-05-29T13:00:33.364Z,1.40
2019-05-29T13:03:03.093Z,1.50
2019-05-29T13:05:31.830Z,1.23
2019-05-29T13:08:00.805Z,1.47
2019-05-29T13:10:31.208Z,1.77
2019-05-29T13:13:07.953Z,1.57
2019-05-29T13:15:30.416Z,1.80
2019-05-29T13:18:03.994Z,1.70
2019-05-29T13:20:29.315Z,1.50
2019-05-29T13:22:59.495Z,1.47
2019-05-29T13:25:28.105Z,1.20
2019-05-29T13:27:58.924Z,1.40
2019-05-29T13:30:27.476Z,1.17
2019-05-29T13:32:59.184Z,1.33
2019-05-29T13:35:25.639Z,1.17
2019-05-29T13:37:54.198Z,1.30
2019-05-29T13:40:23.605Z,1.47
2019-05-29T13:42:52.165Z,1.00
2019-05-29T13:45:21.188Z,1.50
2019-05-29T13:47:49.756Z,1.23
2019-05-29T13:50:18.686Z,1.47
2019-05-29T13:52:47.247Z,1.40
2019-05-29T13:55:15.582Z,1.03
2019-05-29T13:57:44.161Z,1.80
2019-05-29T14:00:32.198Z,1.17
2019-05-29T14:02:45.413Z,1.70
2019-05-29T14:05:15.216Z,1.37
2019-05-29T14:07:43.849Z,1.40
2019-05-29T14:10:13.273Z,1.77
2019-05-29T14:12:41.845Z,1.20
2019-05-29T14:15:12.434Z,1.20
2019-05-29T14:17:42.838Z,1.30
2019-05-29T14:20:13.024Z,1.50
2019-05-29T14:22:41.600Z,1.50
2019-05-29T14:25:11.640Z,1.60
2019-05-29T14:27:40.162Z,1.47
2019-05-29T14:30:10.588Z,1.43
2019-05-29T14:32:39.581Z,1.30
2019-05-29T14:35:09.503Z,1.70
2019-05-29T14:37:38.699Z,1.10
2019-05-29T14:40:08.018Z,1.20
2019-05-29T14:42:36.779Z,1.73
2019-05-29T14:45:08.140Z,1.27
2019-05-29T14:47:36.901Z,1.50
2019-05-29T14:50:08.708Z,1.23
2019-05-29T14:52:37.607Z,1.50
2019-05-29T14:55:06.759Z,1.47
2019-05-29T14:57:35.489Z,1.40
2019-05-29T15:00:21.055Z,1.60
2019-05-29T15:02:40.447Z,1.60
2019-05-29T15:05:09.919Z,1.40
2019-05-29T15:07:38.195Z,1.60
2019-05-29T15:10:20.078Z,1.27
2019-05-29T15:12:38.852Z,1.40
2019-05-29T15:15:08.932Z,1.63
2019-05-29T15:17:37.910Z,1.30
2019-05-29T15:20:09.354Z,1.53
2019-05-29T15:22:37.936Z,1.67
2019-05-29T15:25:16.704Z,1.03
2019-05-29T15:27:37.014Z,2.60
2019-05-29T15:30:09.318Z,1.80
2019-05-29T15:32:39.146Z,1.20
2019-05-29T15:35:13.873Z,1.60
2019-05-29T15:37:38.806Z,1.77
2019-05-29T15:40:08.893Z,1.70
2019-05-29T15:42:37.546Z,1.63
2019-05-29T15:45:07.638Z,1.50
2019-05-29T15:47:35.995Z,1.60
2019-05-29T15:50:07.816Z,1.60
2019-05-29T15:52:37.531Z,1.80
2019-05-29T15:55:21.421Z,1.80
2019-05-29T15:57:38.399Z,1.60
2019-05-29T16:00:09.470Z,2.00
2019-05-29T16:02:38.076Z,2.10
2019-05-29T16:05:06.740Z,1.40
2019-05-29T16:07:35.291Z,1.43
2019-05-29T16:10:12.377Z,1.93
2019-05-29T16:12:39.249Z,1.67
2019-05-29T16:15:09.156Z,1.77
2019-05-29T16:17:37.898Z,1.40
2019-05-29T16:20:06.630Z,1.60
2019-05-29T16:22:35.270Z,2.20
2019-05-29T16:25:05.475Z,1.70
2019-05-29T16:27:34.049Z,1.57
2019-05-29T16:30:03.469Z,1.80
2019-05-29T16:32:32.038Z,1.70
2019-05-29T16:35:00.635Z,1.80
2019-05-29T16:37:29.212Z,1.70
2019-05-29T16:39:57.803Z,1.90
2019-05-29T16:42:26.046Z,1.80
2019-05-29T16:44:54.638Z,1.63
2019-05-29T16:47:23.215Z,1.90
2019-05-29T16:49:51.800Z,2.10
2019-05-29T16:52:20.796Z,1.70
2019-05-29T16:54:49.536Z,1.40
2019-05-29T16:57:19.242Z,1.90
2019-05-29T16:59:48.055Z,1.70
2019-05-29T17:02:17.629Z,1.43
2019-05-29T17:04:46.411Z,1.47
2019-05-29T17:07:16.089Z,1.57
2019-05-29T17:09:44.887Z,1.40
2019-05-29T17:12:14.280Z,1.60
2019-05-29T17:14:42.928Z,1.60
2019-05-29T17:17:11.595Z,1.30
2019-05-29T17:19:40.428Z,1.80
2019-05-29T17:22:09.056Z,1.53
2019-05-29T17:24:37.771Z,1.37
2019-05-29T17:27:06.482Z,1.57
2019-05-29T17:29:34.718Z,1.60
2019-05-29T17:32:03.272Z,1.43
2019-05-29T17:34:31.883Z,1.40
2019-05-29T17:37:00.449Z,2.10
2019-05-29T17:39:28.996Z,1.70
2019-05-29T17:41:57.262Z,1.57
2019-05-29T17:44:25.832Z,1.73
2019-05-29T17:46:54.420Z,1.70
2019-05-29T17:49:32.757Z,1.87
2019-05-29T17:51:53.307Z,1.80
2019-05-29T17:54:21.888Z,1.73
2019-05-29T17:56:50.556Z,1.70
2019-05-29T17:59:20.130Z,1.37
2019-05-29T18:01:48.792Z,1.57
2019-05-29T18:04:18.053Z,1.87
2019-05-29T18:06:46.761Z,1.47
2019-05-29T18:09:17.038Z,1.20
2019-05-29T18:11:47.514Z,1.27
2019-05-29T18:14:17.074Z,1.20
2019-05-29T18:16:46.070Z,1.40
2019-05-29T18:19:14.646Z,1.63
2019-05-29T18:21:43.243Z,1.40
2019-05-29T18:24:11.783Z,1.27
2019-05-29T18:26:46.996Z,1.10
2019-05-29T18:29:10.566Z,1.27
2019-05-29T18:31:39.158Z,1.90
2019-05-29T18:34:07.730Z,1.43
2019-05-29T18:36:36.336Z,1.70
2019-05-29T18:39:07.360Z,2.27
2019-05-29T18:41:35.911Z,2.03
2019-05-29T18:44:04.585Z,1.60
2019-05-29T18:46:37.574Z,1.50
2019-05-29T18:49:03.385Z,1.67
2019-05-29T18:51:32.817Z,1.63
2019-05-29T18:54:01.513Z,2.40
2019-05-29T18:56:30.621Z,1.70
2019-05-29T18:58:59.375Z,2.40
2019-05-29T19:01:27.965Z,1.63
2019-05-29T19:03:56.497Z,1.63
2019-05-29T19:06:25.544Z,1.43
2019-05-29T19:08:54.221Z,1.63
2019-05-29T19:11:23.869Z,1.63
2019-05-29T19:13:52.492Z,1.90
2019-05-29T19:16:21.846Z,1.70
2019-05-29T19:18:50.530Z,1.73
2019-05-29T19:21:18.871Z,1.87
2019-05-29T19:23:47.439Z,2.10
2019-05-29T19:26:16.105Z,1.53
2019-05-29T19:28:44.636Z,2.03
2019-05-29T19:31:13.239Z,1.67
2019-05-29T19:33:41.772Z,1.70
2019-05-29T19:36:10.443Z,2.27
2019-05-29T19:38:38.674Z,2.47
2019-05-29T19:41:07.306Z,2.47
2019-05-29T19:43:35.887Z,2.53
2019-05-29T19:46:04.647Z,2.10
2019-05-29T19:48:33.185Z,2.33
2019-05-29T19:51:01.777Z,2.17
2019-05-29T19:53:31.386Z,2.17
2019-05-29T19:56:00.083Z,2.03
2019-05-29T19:58:29.702Z,1.83
2019-05-29T20:00:58.462Z,2.23
2019-05-29T20:03:28.270Z,2.03
2019-05-29T20:05:57.475Z,1.87
2019-05-29T20:08:27.071Z,2.40
2019-05-29T20:10:55.773Z,2.30
2019-05-29T20:13:24.345Z,2.37
2019-05-29T20:15:52.901Z,2.53
2019-05-29T20:18:21.442Z,1.87
2019-05-29T20:20:49.685Z,2.03
2019-05-29T20:23:19.168Z,1.90
2019-05-29T20:25:47.764Z,1.70
2019-05-29T20:28:16.432Z,2.73
2019-05-29T20:30:44.985Z,2.17
2019-05-29T20:33:13.548Z,2.00
2019-05-29T20:35:43.146Z,1.87
2019-05-29T20:38:11.814Z,1.90
2019-05-29T20:40:40.021Z,1.93
2019-05-29T20:43:08.623Z,2.30
2019-05-29T20:45:37.674Z,2.40
2019-05-29T20:48:06.406Z,1.63
2019-05-29T20:50:34.977Z,2.17
2019-05-29T20:53:03.526Z,1.80
2019-05-29T20:55:32.110Z,1.97
2019-05-29T20:58:00.383Z,1.77
2019-05-29T21:00:28.972Z,1.90
2019-05-29T21:02:57.575Z,1.63
2019-05-29T21:05:26.218Z,2.43
2019-05-29T21:07:54.811Z,1.60
2019-05-29T21:10:23.556Z,1.90
2019-05-29T21:12:52.113Z,2.37
2019-05-29T21:15:20.797Z,1.97
2019-05-29T21:17:49.364Z,1.70
2019-05-29T21:20:18.003Z,2.23
2019-05-29T21:22:46.599Z,2.10
2019-05-29T21:25:18.959Z,1.63
2019-05-29T21:27:49.174Z,2.10
2019-05-29T21:30:17.833Z,2.03
2019-05-29T21:32:46.490Z,2.10
2019-05-29T21:35:15.396Z,1.83
2019-05-29T21:37:44.424Z,1.90
2019-05-29T21:40:13.902Z,2.33
2019-05-29T21:42:42.870Z,1.80
2019-05-29T21:45:11.393Z,2.00
2019-05-29T21:47:40.976Z,1.73
2019-05-29T21:50:10.301Z,2.00
2019-05-29T21:52:39.667Z,2.17
2019-05-29T21:55:09.472Z,1.80
2019-05-29T21:57:41.315Z,2.37
2019-05-29T22:00:12.438Z,2.20
2019-05-29T22:02:42.169Z,1.80
2019-05-29T22:05:11.107Z,1.97
2019-05-29T22:07:40.700Z,1.97
2019-05-29T22:10:09.938Z,1.90
2019-05-29T22:12:38.173Z,2.37
2019-05-29T22:15:07.202Z,1.87
2019-05-29T22:17:35.809Z,2.30
2019-05-29T22:20:06.984Z,2.27
2019-05-29T22:22:35.563Z,2.37
2019-05-29T22:25:06.479Z,2.00
2019-05-29T22:27:35.417Z,1.87
2019-05-29T22:30:06.213Z,2.20
2019-05-29T22:32:34.790Z,2.00
2019-05-29T22:35:04.430Z,1.90
2019-05-29T22:37:33.075Z,2.47
2019-05-29T22:40:02.006Z,2.27
2019-05-29T22:42:30.719Z,2.47
2019-05-29T22:44:59.858Z,2.47
2019-05-29T22:47:28.487Z,1.87
2019-05-29T22:49:57.925Z,2.13
2019-05-29T22:52:26.523Z,2.13
2019-05-29T22:54:55.801Z,2.27
2019-05-29T22:57:24.483Z,2.17
2019-05-29T22:59:53.762Z,2.33
2019-05-29T23:02:22.285Z,2.47
2019-05-29T23:04:52.061Z,2.03
2019-05-29T23:07:20.901Z,1.70
2019-05-29T23:09:49.518Z,2.03
2019-05-29T23:12:18.069Z,2.80
2019-05-29T23:14:46.657Z,2.77
2019-05-29T23:17:15.221Z,2.20
2019-05-29T23:19:43.830Z,2.17
2019-05-29T23:22:12.446Z,2.27
2019-05-29T23:24:41.108Z,2.87
2019-05-29T23:27:09.635Z,2.00
2019-05-29T23:29:48.394Z,2.50
2019-05-29T23:32:08.421Z,2.07
2019-05-29T23:34:37.026Z,2.53
2019-05-29T23:37:05.663Z,2.57
2019-05-29T23:39:34.316Z,2.80
2019-05-29T23:42:03.602Z,2.63
2019-05-29T23:44:32.275Z,2.87
2019-05-29T23:47:01.759Z,2.80
2019-05-29T23:49:30.538Z,2.73
2019-05-29T23:51:59.683Z,2.97
2019-05-29T23:54:28.365Z,2.93
2019-05-29T23:56:57.927Z,2.50
2019-05-29T23:59:26.723Z,2.23
